createdAt,value
2022-12-20T00:01:42.723Z,63.58
2022-12-20T00:04:11.299Z,63.87
2022-12-20T00:06:37.824Z,64.90
2022-12-20T00:09:06.765Z,64.34
2022-12-20T00:11:33.638Z,64.80
2022-12-20T00:14:00.141Z,65.64
2022-12-20T00:16:28.679Z,65.59
2022-12-20T00:18:58.087Z,65.42
2022-12-20T00:21:24.967Z,65.48
2022-12-20T00:23:53.002Z,65.87
2022-12-20T00:26:22.054Z,67.11
2022-12-20T00:28:49.183Z,66.66
2022-12-20T00:31:18.736Z,66.63
2022-12-20T00:33:47.364Z,65.96
2022-12-20T00:36:14.403Z,67.20
2022-12-20T00:38:41.317Z,67.14
2022-12-20T00:41:11.247Z,67.23
2022-12-20T00:43:39.002Z,67.39
2022-12-20T00:46:07.038Z,67.34
2022-12-20T00:48:34.408Z,67.06
2022-12-20T00:51:09.626Z,68.14
2022-12-20T00:53:36.786Z,67.21
2022-12-20T00:56:04.482Z,67.22
2022-12-20T00:58:33.499Z,67.04
2022-12-20T01:01:00.188Z,66.47
2022-12-20T01:03:27.354Z,67.09
2022-12-20T01:06:03.245Z,68.26
2022-12-20T01:08:31.061Z,69.42
2022-12-20T01:11:08.845Z,68.34
2022-12-20T01:13:37.446Z,67.55
2022-12-20T01:16:14.017Z,68.67
2022-12-20T01:18:40.532Z,68.25
2022-12-20T01:21:10.232Z,67.79
2022-12-20T01:23:37.096Z,68.13
2022-12-20T01:26:05.587Z,68.11
2022-12-20T01:28:32.403Z,67.89
2022-12-20T01:30:58.817Z,67.34
2022-12-20T01:33:25.307Z,67.96
2022-12-20T01:36:00.026Z,67.13
2022-12-20T01:38:27.384Z,67.12
2022-12-20T01:40:55.710Z,66.59
2022-12-20T01:43:22.419Z,65.96
2022-12-20T01:45:49.016Z,66.69
2022-12-20T01:48:22.219Z,66.73
2022-12-20T01:50:50.019Z,66.68
2022-12-20T01:53:23.227Z,66.51
2022-12-20T01:55:49.891Z,67.54
2022-12-20T01:58:19.867Z,67.31
2022-12-20T02:00:46.951Z,66.90
2022-12-20T02:03:16.629Z,68.53
2022-12-20T02:05:48.076Z,67.17
2022-12-20T02:08:18.346Z,68.65
2022-12-20T02:10:56.916Z,67.79
2022-12-20T02:13:47.129Z,69.04
2022-12-20T02:16:22.532Z,67.39
2022-12-20T02:19:00.245Z,68.16
2022-12-20T02:21:55.601Z,67.38
2022-12-20T02:24:41.856Z,67.14
2022-12-20T02:27:18.864Z,66.18
2022-12-20T02:30:01.257Z,67.99
2022-12-20T02:32:56.947Z,68.35
2022-12-20T02:35:28.183Z,67.04
2022-12-20T02:37:57.459Z,66.01
2022-12-20T02:40:32.149Z,67.42
2022-12-20T02:43:03.198Z,66.61
2022-12-20T02:45:34.644Z,67.68
2022-12-20T02:48:11.015Z,67.20
2022-12-20T02:50:43.516Z,67.60
2022-12-20T02:53:10.584Z,66.89
2022-12-20T02:55:45.975Z,67.70
2022-12-20T02:58:23.041Z,67.54
2022-12-20T03:00:51.456Z,67.45
2022-12-20T03:03:24.219Z,66.79
2022-12-20T03:05:53.861Z,67.30
2022-12-20T03:08:21.351Z,67.34
2022-12-20T03:10:47.806Z,66.67
2022-12-20T03:13:14.722Z,66.90
2022-12-20T03:15:41.126Z,65.88
2022-12-20T03:18:07.868Z,66.45
2022-12-20T03:20:34.411Z,66.59
2022-12-20T03:23:00.860Z,67.37
2022-12-20T03:25:27.276Z,66.81
2022-12-20T03:27:53.715Z,69.03
2022-12-20T03:30:20.484Z,68.16
2022-12-20T03:32:46.922Z,68.17
2022-12-20T03:35:13.382Z,67.35
2022-12-20T03:37:39.836Z,67.73
2022-12-20T03:40:07.163Z,68.31
2022-12-20T03:42:33.873Z,67.81
2022-12-20T03:45:00.320Z,69.23
2022-12-20T03:47:26.723Z,67.54
2022-12-20T03:49:53.325Z,67.65
2022-12-20T03:52:19.811Z,68.63
2022-12-20T03:54:46.214Z,66.98
2022-12-20T03:57:12.635Z,66.83
2022-12-20T03:59:39.020Z,68.31
2022-12-20T04:02:05.911Z,67.72
2022-12-20T04:04:32.587Z,67.63
2022-12-20T04:06:59.035Z,66.89
2022-12-20T04:09:25.504Z,67.57
2022-12-20T04:11:51.958Z,67.61
2022-12-20T04:14:18.526Z,67.86
2022-12-20T04:16:45.028Z,67.22
2022-12-20T04:19:12.072Z,66.19
2022-12-20T04:21:38.547Z,66.43
2022-12-20T04:24:06.033Z,66.60
2022-12-20T04:26:32.558Z,66.03
2022-12-20T04:28:59.048Z,64.68
2022-12-20T04:31:25.510Z,65.17
2022-12-20T04:33:53.031Z,65.77
2022-12-20T04:36:20.082Z,64.44
2022-12-20T04:38:46.735Z,65.22
2022-12-20T04:41:22.110Z,64.74
2022-12-20T04:43:57.140Z,65.43
2022-12-20T04:46:25.015Z,66.63
2022-12-20T04:48:57.955Z,67.29
2022-12-20T04:51:25.838Z,65.95
2022-12-20T04:53:52.271Z,65.83
2022-12-20T04:56:28.163Z,65.91
2022-12-20T04:58:56.879Z,66.33
2022-12-20T05:01:23.681Z,65.40
2022-12-20T05:03:50.499Z,66.34
2022-12-20T05:06:17.587Z,65.60
2022-12-20T05:08:44.628Z,65.73
2022-12-20T05:11:11.385Z,65.63
2022-12-20T05:13:37.887Z,65.51
2022-12-20T05:16:04.668Z,65.87
2022-12-20T05:18:31.404Z,64.32
2022-12-20T05:21:17.975Z,65.61
2022-12-20T05:24:03.450Z,65.66
2022-12-20T05:26:34.003Z,66.21
2022-12-20T05:29:00.387Z,66.82
2022-12-20T05:31:27.019Z,67.31
2022-12-20T05:33:54.103Z,66.07
2022-12-20T05:36:20.546Z,66.92
2022-12-20T05:38:46.987Z,65.92
2022-12-20T05:41:13.423Z,66.10
2022-12-20T05:43:40.401Z,67.32
2022-12-20T05:46:07.144Z,66.69
2022-12-20T05:48:34.091Z,66.41
2022-12-20T05:51:01.208Z,68.34
2022-12-20T05:53:27.730Z,68.98
2022-12-20T05:55:55.207Z,68.45
2022-12-20T05:58:21.966Z,68.42
2022-12-20T06:00:48.457Z,67.68
2022-12-20T06:03:15.424Z,68.98
2022-12-20T06:05:43.923Z,69.60
2022-12-20T06:08:11.404Z,67.40
2022-12-20T06:10:40.066Z,68.36
2022-12-20T06:13:08.505Z,67.63
2022-12-20T06:15:35.185Z,66.84
2022-12-20T06:18:01.896Z,69.36
2022-12-20T06:20:28.583Z,68.82
2022-12-20T06:22:55.124Z,67.51
2022-12-20T06:25:21.644Z,67.12
2022-12-20T06:27:48.091Z,66.73
2022-12-20T06:30:15.186Z,66.41
2022-12-20T06:32:41.608Z,67.00
2022-12-20T06:35:08.670Z,68.02
2022-12-20T06:37:36.230Z,66.16
2022-12-20T06:40:04.518Z,67.33
2022-12-20T06:42:31.080Z,66.85
2022-12-20T06:44:57.469Z,67.66
2022-12-20T06:47:23.923Z,65.76
2022-12-20T06:49:50.322Z,66.15
2022-12-20T06:52:16.727Z,66.70
2022-12-20T06:54:43.164Z,66.79
2022-12-20T06:57:09.587Z,67.11
2022-12-20T06:59:36.106Z,66.04
2022-12-20T07:02:02.941Z,65.22
2022-12-20T07:04:29.554Z,65.58
2022-12-20T07:06:57.165Z,67.19
2022-12-20T07:09:23.826Z,67.09
2022-12-20T07:11:50.233Z,66.83
2022-12-20T07:14:16.630Z,67.44
2022-12-20T07:16:43.924Z,65.48
2022-12-20T07:19:12.890Z,66.50
2022-12-20T07:21:39.388Z,66.31
2022-12-20T07:24:06.465Z,66.44
2022-12-20T07:26:33.083Z,65.83
2022-12-20T07:28:59.544Z,67.27
2022-12-20T07:31:26.082Z,66.50
2022-12-20T07:33:52.565Z,66.32
2022-12-20T07:36:19.455Z,65.35
2022-12-20T07:38:45.915Z,64.71
2022-12-20T07:41:15.752Z,65.42
2022-12-20T07:43:43.341Z,64.61
2022-12-20T07:46:16.570Z,65.15
2022-12-20T07:48:44.594Z,65.45
2022-12-20T07:51:21.727Z,64.92
2022-12-20T07:53:52.701Z,66.93
2022-12-20T07:56:22.450Z,65.36
2022-12-20T07:58:52.297Z,65.74
2022-12-20T08:01:19.819Z,65.83
2022-12-20T08:03:51.519Z,66.95
2022-12-20T08:06:19.392Z,67.33
2022-12-20T08:08:54.197Z,68.74
2022-12-20T08:11:22.338Z,69.12
2022-12-20T08:13:55.767Z,67.09
2022-12-20T08:16:24.641Z,68.66
2022-12-20T08:18:51.091Z,67.89
2022-12-20T08:21:17.615Z,67.71
2022-12-20T08:23:44.133Z,68.80
2022-12-20T08:26:10.660Z,68.73
2022-12-20T08:28:37.702Z,67.86
2022-12-20T08:31:06.749Z,67.82
2022-12-20T08:33:35.122Z,66.34
2022-12-20T08:36:04.891Z,68.04
2022-12-20T08:38:32.084Z,67.43
2022-12-20T08:41:10.870Z,68.03
2022-12-20T08:43:38.438Z,66.73
2022-12-20T08:46:06.979Z,67.36
2022-12-20T08:48:34.041Z,66.92
2022-12-20T08:51:03.429Z,67.80
2022-12-20T08:53:30.035Z,66.52
2022-12-20T08:56:12.468Z,65.04
2022-12-20T08:58:40.039Z,65.29
2022-12-20T09:01:09.447Z,64.88
2022-12-20T09:03:36.808Z,64.76
2022-12-20T09:06:14.658Z,63.55
2022-12-20T09:08:41.106Z,65.66
2022-12-20T09:11:13.887Z,63.75
2022-12-20T09:13:44.377Z,64.48
2022-12-20T09:16:13.872Z,64.67
2022-12-20T09:18:40.734Z,65.14
2022-12-20T09:21:09.393Z,64.28
2022-12-20T09:23:37.070Z,64.86
2022-12-20T09:26:05.780Z,65.75
2022-12-20T09:28:33.804Z,64.41
2022-12-20T09:31:01.389Z,64.24
2022-12-20T09:33:29.048Z,64.53
2022-12-20T09:35:55.497Z,63.96
2022-12-20T09:38:21.915Z,63.71
2022-12-20T09:40:51.860Z,65.16
2022-12-20T09:43:23.235Z,64.81
2022-12-20T09:45:54.164Z,64.83
2022-12-20T09:48:28.843Z,64.01
2022-12-20T09:51:10.259Z,63.89
2022-12-20T09:54:01.712Z,61.16
2022-12-20T09:56:44.864Z,61.35
2022-12-20T09:59:13.910Z,61.99
2022-12-20T10:01:44.491Z,61.90
2022-12-20T10:04:23.194Z,61.79
2022-12-20T10:07:07.951Z,61.99
2022-12-20T10:09:46.629Z,61.05
2022-12-20T10:12:35.057Z,61.85
2022-12-20T10:15:19.902Z,62.47
2022-12-20T10:18:04.993Z,62.20
2022-12-20T10:20:57.965Z,61.75
2022-12-20T10:23:46.177Z,60.92
2022-12-20T10:26:13.805Z,60.76
2022-12-20T10:28:44.445Z,61.46
2022-12-20T10:31:14.775Z,60.59
2022-12-20T10:33:42.243Z,59.97
2022-12-20T10:36:29.632Z,62.91
2022-12-20T10:38:58.617Z,60.29
2022-12-20T10:41:28.089Z,60.92
2022-12-20T10:44:15.447Z,59.08
2022-12-20T10:46:46.800Z,60.22
2022-12-20T10:49:25.152Z,59.54
2022-12-20T10:51:53.587Z,58.57
2022-12-20T10:54:28.995Z,59.91
2022-12-20T10:56:59.237Z,58.96
2022-12-20T10:59:37.905Z,59.61
2022-12-20T11:02:41.422Z,58.52
2022-12-20T11:05:11.934Z,58.66
2022-12-20T11:10:45.491Z,57.88
2022-12-20T11:13:26.680Z,57.75
2022-12-20T11:15:57.293Z,57.87
2022-12-20T11:18:43.514Z,56.92
2022-12-20T11:21:58.052Z,56.32
2022-12-20T11:24:41.012Z,57.33
2022-12-20T11:27:11.982Z,57.80
2022-12-20T11:30:02.761Z,57.49
2022-12-20T11:32:31.994Z,58.91
2022-12-20T11:35:19.820Z,57.80
2022-12-20T11:38:14.663Z,58.00
2022-12-20T11:41:21.276Z,58.23
2022-12-20T11:47:24.965Z,56.53
2022-12-20T11:49:58.065Z,56.76
2022-12-20T11:52:30.315Z,55.83
2022-12-20T11:55:26.645Z,55.48
2022-12-20T11:58:19.367Z,58.75
2022-12-20T12:01:03.941Z,58.85
2022-12-20T12:03:36.136Z,60.09
2022-12-20T12:06:31.687Z,57.18
2022-12-20T12:09:13.464Z,59.80
2022-12-20T12:12:06.647Z,57.86
2022-12-20T12:14:34.007Z,57.67
2022-12-20T12:17:09.735Z,58.03
2022-12-20T12:19:43.381Z,57.80
2022-12-20T12:22:18.227Z,57.88
2022-12-20T12:24:51.687Z,56.95
2022-12-20T12:27:27.680Z,57.00
2022-12-20T12:29:57.707Z,57.37
2022-12-20T12:32:44.410Z,56.46
2022-12-20T12:35:22.046Z,56.92
2022-12-20T12:38:00.983Z,56.32
2022-12-20T12:40:57.450Z,57.01
2022-12-20T12:43:49.907Z,56.82
2022-12-20T12:46:22.707Z,56.90
2022-12-20T12:49:01.738Z,57.26
2022-12-20T12:51:32.895Z,57.38
2022-12-20T12:54:24.558Z,57.96
2022-12-20T12:56:53.184Z,57.29
2022-12-20T12:59:22.471Z,58.13
2022-12-20T13:01:56.813Z,56.92
2022-12-20T13:04:25.011Z,57.08
2022-12-20T13:07:01.267Z,56.35
2022-12-20T13:09:27.819Z,58.09
2022-12-20T13:12:02.067Z,56.43
2022-12-20T13:14:28.751Z,57.67
2022-12-20T13:17:25.537Z,57.93
2022-12-20T13:19:54.972Z,56.73
2022-12-20T13:22:22.624Z,56.18
2022-12-20T13:25:02.780Z,57.14
2022-12-20T13:27:42.080Z,56.92
2022-12-20T13:30:11.729Z,57.23
2022-12-20T13:32:47.407Z,57.01
2022-12-20T13:35:26.217Z,56.85
2022-12-20T13:37:57.456Z,57.38
2022-12-20T13:40:36.619Z,56.89
2022-12-20T13:43:11.947Z,56.92
2022-12-20T13:45:43.354Z,58.30
2022-12-20T13:48:17.924Z,57.47
2022-12-20T13:50:52.262Z,56.97
2022-12-20T13:53:23.773Z,57.27
2022-12-20T13:55:50.452Z,56.48
2022-12-20T13:58:26.535Z,56.40
2022-12-20T14:00:54.149Z,55.46
2022-12-20T14:03:25.216Z,56.47
2022-12-20T14:05:59.521Z,57.10
2022-12-20T14:08:30.527Z,56.50
2022-12-20T14:11:14.259Z,56.79
2022-12-20T14:13:41.890Z,56.55
2022-12-20T14:16:16.433Z,56.08
2022-12-20T14:18:48.944Z,56.27
2022-12-20T14:21:16.622Z,55.86
2022-12-20T14:23:50.656Z,56.62
2022-12-20T14:26:22.382Z,57.08
2022-12-20T14:28:51.382Z,57.35
2022-12-20T14:31:33.047Z,58.48
2022-12-20T14:34:04.382Z,59.11
2022-12-20T14:36:31.762Z,57.72
2022-12-20T14:38:58.557Z,56.95
2022-12-20T14:41:37.102Z,56.76
2022-12-20T14:44:06.772Z,56.08
2022-12-20T14:46:35.581Z,56.73
2022-12-20T14:49:24.796Z,56.36
2022-12-20T14:51:53.108Z,56.23
2022-12-20T14:55:05.124Z,56.11
2022-12-20T14:57:30.932Z,56.60
2022-12-20T15:00:12.396Z,57.66
2022-12-20T15:02:43.394Z,56.46
2022-12-20T15:05:40.476Z,57.11
2022-12-20T15:08:30.408Z,57.24
2022-12-20T15:11:11.137Z,55.99
2022-12-20T15:13:49.948Z,56.59
2022-12-20T15:16:29.312Z,55.28
2022-12-20T15:19:01.880Z,56.88
2022-12-20T15:21:45.602Z,57.29
2022-12-20T15:24:19.644Z,56.35
2022-12-20T15:26:46.131Z,56.69
2022-12-20T15:29:17.206Z,56.29
2022-12-20T15:31:45.724Z,56.56
2022-12-20T15:34:21.467Z,58.31
2022-12-20T15:36:48.007Z,56.72
2022-12-20T15:39:15.292Z,55.79
2022-12-20T15:41:46.165Z,57.28
2022-12-20T15:44:19.319Z,56.60
2022-12-20T15:46:45.873Z,56.62
2022-12-20T15:49:18.835Z,57.76
2022-12-20T15:51:47.598Z,58.88
2022-12-20T15:54:35.921Z,58.25
2022-12-20T15:57:09.923Z,58.40
2022-12-20T16:02:29.031Z,58.18
2022-12-20T16:04:55.968Z,58.80
2022-12-20T16:07:22.792Z,59.34
2022-12-20T16:09:49.392Z,58.63
2022-12-20T16:12:26.983Z,58.40
2022-12-20T16:14:53.567Z,59.34
2022-12-20T16:17:19.993Z,58.00
2022-12-20T16:19:46.497Z,60.06
2022-12-20T16:22:18.687Z,59.32
2022-12-20T16:24:45.832Z,60.89
2022-12-20T16:27:12.372Z,59.50
2022-12-20T16:29:38.754Z,60.00
2022-12-20T16:32:15.107Z,60.56
2022-12-20T16:34:41.556Z,60.99
2022-12-20T16:37:07.980Z,57.66
2022-12-20T16:39:34.381Z,59.20
2022-12-20T16:42:01.573Z,59.04
2022-12-20T16:44:27.994Z,58.59
2022-12-20T16:46:54.556Z,57.92
2022-12-20T16:49:21.217Z,58.49
2022-12-20T16:51:48.840Z,59.86
2022-12-20T16:54:23.196Z,58.29
2022-12-20T16:56:56.592Z,62.37
2022-12-20T16:59:24.281Z,58.68
2022-12-20T17:01:54.311Z,57.69
2022-12-20T17:04:23.771Z,58.82
2022-12-20T17:06:50.479Z,58.26
2022-12-20T17:12:04.165Z,61.66
2022-12-20T17:14:30.963Z,59.71
2022-12-20T17:16:57.411Z,59.33
2022-12-20T17:19:23.865Z,64.19
2022-12-20T17:24:34.341Z,60.95
2022-12-20T17:27:00.816Z,60.86
2022-12-20T17:29:27.278Z,60.86
2022-12-20T17:31:54.032Z,59.63
2022-12-20T17:34:23.531Z,57.73
2022-12-20T17:36:52.243Z,60.73
2022-12-20T17:39:19.019Z,62.48
2022-12-20T17:41:46.423Z,61.00
2022-12-20T17:44:26.078Z,60.22
2022-12-20T17:46:53.345Z,62.62
2022-12-20T17:49:20.062Z,61.77
2022-12-20T17:51:47.053Z,59.00
2022-12-20T17:54:21.582Z,60.18
2022-12-20T17:56:49.625Z,59.00
2022-12-20T17:59:16.751Z,60.67
2022-12-20T18:01:44.266Z,58.23
2022-12-20T18:04:13.733Z,60.38
2022-12-20T18:06:42.083Z,61.17
2022-12-20T18:09:20.417Z,61.57
2022-12-20T18:11:47.986Z,63.25
2022-12-20T18:14:14.847Z,63.00
2022-12-20T18:16:41.706Z,63.96
2022-12-20T18:19:14.420Z,66.89
2022-12-20T18:21:41.662Z,67.76
2022-12-20T18:24:11.825Z,65.40
2022-12-20T18:26:38.261Z,68.61
2022-12-20T18:29:05.007Z,71.71
2022-12-20T18:31:33.833Z,70.10
2022-12-20T18:34:01.244Z,69.15
2022-12-20T18:36:32.784Z,69.74
2022-12-20T18:39:00.051Z,69.33
2022-12-20T18:41:28.892Z,69.92
2022-12-20T18:44:00.745Z,68.84
2022-12-20T18:46:27.478Z,69.25
2022-12-20T18:48:55.252Z,69.10
2022-12-20T18:51:27.396Z,68.07
2022-12-20T18:53:55.994Z,68.61
2022-12-20T18:56:25.332Z,69.22
2022-12-20T18:58:52.447Z,70.53
2022-12-20T19:01:24.981Z,69.16
2022-12-20T19:03:52.283Z,68.87
2022-12-20T19:06:19.877Z,69.80
2022-12-20T19:08:47.287Z,69.75
2022-12-20T19:11:16.964Z,69.20
2022-12-20T19:13:44.613Z,69.01
2022-12-20T19:16:14.399Z,68.65
2022-12-20T19:18:41.684Z,68.69
2022-12-20T19:21:16.971Z,67.50
2022-12-20T19:23:46.743Z,67.17
2022-12-20T19:26:14.012Z,67.79
2022-12-20T19:28:41.376Z,67.00
2022-12-20T19:31:08.955Z,67.07
2022-12-20T19:33:44.310Z,67.61
2022-12-20T19:36:19.940Z,66.52
2022-12-20T19:38:51.791Z,66.42
2022-12-20T19:41:19.897Z,67.53
2022-12-20T19:43:47.618Z,65.16
2022-12-20T19:46:14.880Z,65.46
2022-12-20T19:48:41.333Z,66.13
2022-12-20T19:51:12.856Z,65.09
2022-12-20T19:53:40.438Z,65.63
2022-12-20T19:56:09.987Z,63.92
2022-12-20T19:58:37.811Z,66.38
2022-12-20T20:01:05.875Z,64.69
2022-12-20T20:03:32.970Z,64.14
2022-12-20T20:05:59.643Z,66.25
2022-12-20T20:08:26.407Z,64.70
2022-12-20T20:10:54.342Z,63.89
2022-12-20T20:13:20.833Z,64.49
2022-12-20T20:15:56.452Z,66.22
2022-12-20T20:18:24.242Z,65.02
2022-12-20T20:20:50.674Z,64.23
2022-12-20T20:23:17.400Z,63.36
2022-12-20T20:25:58.786Z,64.56
2022-12-20T20:28:31.671Z,63.79
2022-12-20T20:30:59.750Z,63.46
2022-12-20T20:33:26.539Z,65.05
2022-12-20T20:35:54.858Z,65.30
2022-12-20T20:38:21.597Z,64.88
2022-12-20T20:40:48.043Z,63.36
2022-12-20T20:43:14.554Z,61.17
2022-12-20T20:45:41.261Z,64.06
2022-12-20T20:48:07.669Z,63.01
2022-12-20T20:50:34.092Z,61.63
2022-12-20T20:53:00.666Z,61.98
2022-12-20T20:55:27.276Z,63.92
2022-12-20T20:57:53.887Z,63.45
2022-12-20T21:00:20.833Z,62.34
2022-12-20T21:02:47.881Z,62.83
2022-12-20T21:06:07.083Z,62.12
2022-12-20T21:08:01.239Z,62.37
2022-12-20T21:10:28.094Z,61.75
2022-12-20T21:12:54.886Z,63.86
2022-12-20T21:15:23.848Z,63.54
2022-12-20T21:17:51.110Z,63.13
2022-12-20T21:20:23.784Z,62.85
2022-12-20T21:22:52.126Z,61.90
2022-12-20T21:25:18.641Z,63.10
2022-12-20T21:27:45.033Z,62.39
2022-12-20T21:30:11.913Z,63.61
2022-12-20T21:32:38.346Z,63.83
2022-12-20T21:35:05.141Z,62.87
2022-12-20T21:37:32.034Z,62.14
2022-12-20T21:39:58.520Z,63.51
2022-12-20T21:42:25.508Z,64.42
2022-12-20T21:44:52.353Z,63.74
2022-12-20T21:47:19.103Z,62.38
2022-12-20T21:49:45.909Z,62.68
2022-12-20T21:52:12.391Z,63.93
2022-12-20T21:54:38.921Z,63.24
2022-12-20T21:57:05.388Z,62.52
2022-12-20T21:59:31.954Z,62.91
2022-12-20T22:01:58.785Z,64.68
2022-12-20T22:04:25.776Z,64.86
2022-12-20T22:06:52.229Z,63.82
2022-12-20T22:09:18.705Z,64.50
2022-12-20T22:11:48.555Z,63.61
2022-12-20T22:14:15.714Z,66.44
2022-12-20T22:16:42.581Z,65.73
2022-12-20T22:19:12.959Z,64.48
2022-12-20T22:21:39.502Z,64.73
2022-12-20T22:24:06.265Z,66.74
2022-12-20T22:26:33.917Z,66.00
2022-12-20T22:29:03.276Z,67.72
2022-12-20T22:31:30.593Z,66.78
2022-12-20T22:33:58.299Z,65.94
2022-12-20T22:36:25.680Z,64.07
2022-12-20T22:38:56.642Z,65.02
2022-12-20T22:41:28.837Z,64.85
2022-12-20T22:43:57.384Z,65.03
2022-12-20T22:46:24.515Z,65.19
2022-12-20T22:48:51.378Z,64.73
2022-12-20T22:51:20.206Z,64.55
2022-12-20T22:53:49.916Z,66.84
2022-12-20T22:56:18.726Z,65.23
2022-12-20T22:58:45.343Z,65.46
2022-12-20T23:01:15.200Z,65.01
2022-12-20T23:03:41.732Z,63.97
2022-12-20T23:06:11.421Z,65.02
2022-12-20T23:08:38.328Z,66.37
2022-12-20T23:11:31.071Z,65.15
2022-12-20T23:14:15.948Z,64.22
2022-12-20T23:16:42.450Z,63.90
2022-12-20T23:19:08.944Z,65.72
2022-12-20T23:21:53.713Z,64.81
2022-12-20T23:24:20.193Z,65.50
2022-12-20T23:26:46.684Z,68.06
2022-12-20T23:29:14.265Z,66.60
2022-12-20T23:31:40.878Z,68.23
2022-12-20T23:34:08.054Z,69.41
2022-12-20T23:36:34.656Z,68.88
2022-12-20T23:39:01.420Z,68.60
2022-12-20T23:41:28.257Z,70.30
2022-12-20T23:43:55.057Z,68.57
2022-12-20T23:46:22.077Z,70.48
2022-12-20T23:48:50.982Z,69.86
2022-12-20T23:51:18.055Z,69.07
2022-12-20T23:53:44.877Z,69.56
2022-12-20T23:56:17.469Z,72.16
2022-12-20T23:58:46.134Z,71.83
